sensor_id;sensor_type;location;lat;lon;timestamp;P1;durP1;ratioP1;P2;durP2;ratioP2
76152;SDS011;64897;50.816;4.422;2023-04-24T00:01:06;14.95;;;8.57;;
76152;SDS011;64897;50.816;4.422;2023-04-24T00:03:53;15.05;;;7.97;;
76152;SDS011;64897;50.816;4.422;2023-04-24T00:06:40;18.63;;;8.55;;
76152;SDS011;64897;50.816;4.422;2023-04-24T00:09:27;13.20;;;7.90;;
76152;SDS011;64897;50.816;4.422;2023-04-24T00:12:15;17.52;;;9.07;;
76152;SDS011;64897;50.816;4.422;2023-04-24T00:15:02;17.08;;;9.02;;
76152;SDS011;64897;50.816;4.422;2023-04-24T00:17:51;14.38;;;7.63;;
76152;SDS011;64897;50.816;4.422;2023-04-24T00:20:38;15.18;;;8.40;;
76152;SDS011;64897;50.816;4.422;2023-04-24T00:23:25;16.30;;;8.60;;
76152;SDS011;64897;50.816;4.422;2023-04-24T00:26:12;19.50;;;8.52;;
76152;SDS011;64897;50.816;4.422;2023-04-24T00:29:01;17.80;;;8.90;;
76152;SDS011;64897;50.816;4.422;2023-04-24T00:31:48;17.45;;;9.60;;
76152;SDS011;64897;50.816;4.422;2023-04-24T00:34:35;18.77;;;9.63;;
76152;SDS011;64897;50.816;4.422;2023-04-24T00:37:23;23.77;;;9.15;;
76152;SDS011;64897;50.816;4.422;2023-04-24T00:40:10;14.57;;;8.45;;
76152;SDS011;64897;50.816;4.422;2023-04-24T00:42:57;16.65;;;8.40;;
76152;SDS011;64897;50.816;4.422;2023-04-24T00:45:45;14.57;;;9.07;;
76152;SDS011;64897;50.816;4.422;2023-04-24T00:48:33;19.40;;;9.00;;
76152;SDS011;64897;50.816;4.422;2023-04-24T00:51:20;17.52;;;8.27;;
76152;SDS011;64897;50.816;4.422;2023-04-24T00:54:09;17.48;;;8.38;;
76152;SDS011;64897;50.816;4.422;2023-04-24T00:56:56;16.45;;;9.48;;
76152;SDS011;64897;50.816;4.422;2023-04-24T00:59:42;16.33;;;8.45;;
76152;SDS011;64897;50.816;4.422;2023-04-24T01:02:32;18.38;;;9.40;;
76152;SDS011;64897;50.816;4.422;2023-04-24T01:05:19;12.13;;;8.77;;
76152;SDS011;64897;50.816;4.422;2023-04-24T01:08:06;16.05;;;8.65;;
76152;SDS011;64897;50.816;4.422;2023-04-24T01:10:54;15.13;;;8.45;;
76152;SDS011;64897;50.816;4.422;2023-04-24T01:13:42;16.10;;;9.02;;
76152;SDS011;64897;50.816;4.422;2023-04-24T01:16:30;12.73;;;8.45;;
76152;SDS011;64897;50.816;4.422;2023-04-24T01:19:21;14.52;;;8.68;;
76152;SDS011;64897;50.816;4.422;2023-04-24T01:22:10;13.27;;;8.50;;
76152;SDS011;64897;50.816;4.422;2023-04-24T01:24:59;16.77;;;9.10;;
76152;SDS011;64897;50.816;4.422;2023-04-24T01:27:48;13.85;;;7.85;;
76152;SDS011;64897;50.816;4.422;2023-04-24T01:30:35;18.35;;;9.18;;
76152;SDS011;64897;50.816;4.422;2023-04-24T01:33:22;13.85;;;9.55;;
76152;SDS011;64897;50.816;4.422;2023-04-24T01:36:10;16.77;;;8.48;;
76152;SDS011;64897;50.816;4.422;2023-04-24T01:38:59;12.73;;;7.88;;
76152;SDS011;64897;50.816;4.422;2023-04-24T01:41:45;15.38;;;8.23;;
76152;SDS011;64897;50.816;4.422;2023-04-24T01:44:39;12.80;;;7.95;;
76152;SDS011;64897;50.816;4.422;2023-04-24T01:47:27;15.85;;;8.27;;
76152;SDS011;64897;50.816;4.422;2023-04-24T01:50:16;14.27;;;7.95;;
76152;SDS011;64897;50.816;4.422;2023-04-24T01:53:03;22.30;;;8.85;;
76152;SDS011;64897;50.816;4.422;2023-04-24T01:55:51;15.70;;;9.52;;
76152;SDS011;64897;50.816;4.422;2023-04-24T01:58:39;17.92;;;9.55;;
76152;SDS011;64897;50.816;4.422;2023-04-24T02:01:26;13.60;;;9.18;;
76152;SDS011;64897;50.816;4.422;2023-04-24T02:04:18;15.20;;;10.30;;
76152;SDS011;64897;50.816;4.422;2023-04-24T02:07:05;14.50;;;9.07;;
76152;SDS011;64897;50.816;4.422;2023-04-24T02:09:55;20.45;;;10.18;;
76152;SDS011;64897;50.816;4.422;2023-04-24T02:12:43;18.10;;;9.82;;
76152;SDS011;64897;50.816;4.422;2023-04-24T02:15:30;15.88;;;8.85;;
76152;SDS011;64897;50.816;4.422;2023-04-24T02:18:18;16.55;;;8.90;;
76152;SDS011;64897;50.816;4.422;2023-04-24T02:21:06;18.77;;;9.88;;
76152;SDS011;64897;50.816;4.422;2023-04-24T02:23:53;17.45;;;11.15;;
76152;SDS011;64897;50.816;4.422;2023-04-24T02:26:40;15.13;;;10.07;;
76152;SDS011;64897;50.816;4.422;2023-04-24T02:29:28;17.40;;;9.05;;
76152;SDS011;64897;50.816;4.422;2023-04-24T02:32:16;14.90;;;9.60;;
76152;SDS011;64897;50.816;4.422;2023-04-24T02:35:03;17.02;;;10.10;;
76152;SDS011;64897;50.816;4.422;2023-04-24T02:37:50;20.52;;;10.52;;
76152;SDS011;64897;50.816;4.422;2023-04-24T02:40:37;15.57;;;10.20;;
76152;SDS011;64897;50.816;4.422;2023-04-24T02:43:24;19.42;;;9.98;;
76152;SDS011;64897;50.816;4.422;2023-04-24T02:46:13;12.77;;;8.75;;
76152;SDS011;64897;50.816;4.422;2023-04-24T02:48:59;16.75;;;9.20;;
76152;SDS011;64897;50.816;4.422;2023-04-24T02:51:47;15.05;;;8.52;;
76152;SDS011;64897;50.816;4.422;2023-04-24T02:54:34;21.35;;;10.20;;
76152;SDS011;64897;50.816;4.422;2023-04-24T02:57:21;19.23;;;9.40;;
76152;SDS011;64897;50.816;4.422;2023-04-24T03:00:09;12.48;;;8.23;;
76152;SDS011;64897;50.816;4.422;2023-04-24T03:02:59;13.38;;;8.88;;
76152;SDS011;64897;50.816;4.422;2023-04-24T03:05:46;15.10;;;8.90;;
76152;SDS011;64897;50.816;4.422;2023-04-24T03:08:33;14.30;;;8.68;;
76152;SDS011;64897;50.816;4.422;2023-04-24T03:11:20;12.05;;;8.38;;
76152;SDS011;64897;50.816;4.422;2023-04-24T03:14:07;10.27;;;7.35;;
76152;SDS011;64897;50.816;4.422;2023-04-24T03:16:56;13.18;;;6.25;;
76152;SDS011;64897;50.816;4.422;2023-04-24T03:19:44;13.18;;;7.85;;
76152;SDS011;64897;50.816;4.422;2023-04-24T03:22:31;14.98;;;7.13;;
76152;SDS011;64897;50.816;4.422;2023-04-24T03:25:19;10.73;;;6.25;;
76152;SDS011;64897;50.816;4.422;2023-04-24T03:28:06;11.77;;;7.40;;
76152;SDS011;64897;50.816;4.422;2023-04-24T03:31:00;10.70;;;5.95;;
76152;SDS011;64897;50.816;4.422;2023-04-24T03:33:51;14.68;;;6.47;;
76152;SDS011;64897;50.816;4.422;2023-04-24T03:36:43;10.75;;;6.45;;
76152;SDS011;64897;50.816;4.422;2023-04-24T03:39:32;13.13;;;7.72;;
76152;SDS011;64897;50.816;4.422;2023-04-24T03:42:20;11.07;;;6.68;;
76152;SDS011;64897;50.816;4.422;2023-04-24T03:45:10;10.98;;;6.15;;
76152;SDS011;64897;50.816;4.422;2023-04-24T03:48:00;11.43;;;6.38;;
76152;SDS011;64897;50.816;4.422;2023-04-24T03:50:48;9.40;;;6.80;;
76152;SDS011;64897;50.816;4.422;2023-04-24T03:53:36;11.40;;;6.47;;
76152;SDS011;64897;50.816;4.422;2023-04-24T03:56:23;9.68;;;5.40;;
76152;SDS011;64897;50.816;4.422;2023-04-24T03:59:11;10.82;;;5.78;;
76152;SDS011;64897;50.816;4.422;2023-04-24T04:02:00;7.82;;;5.25;;
76152;SDS011;64897;50.816;4.422;2023-04-24T04:04:47;6.80;;;4.80;;
76152;SDS011;64897;50.816;4.422;2023-04-24T04:07:34;6.75;;;4.38;;
76152;SDS011;64897;50.816;4.422;2023-04-24T04:10:23;8.63;;;5.00;;
76152;SDS011;64897;50.816;4.422;2023-04-24T04:13:10;7.85;;;4.63;;
76152;SDS011;64897;50.816;4.422;2023-04-24T04:15:58;8.15;;;4.97;;
76152;SDS011;64897;50.816;4.422;2023-04-24T04:18:45;8.88;;;5.25;;
76152;SDS011;64897;50.816;4.422;2023-04-24T04:21:33;8.75;;;5.18;;
76152;SDS011;64897;50.816;4.422;2023-04-24T04:24:40;9.23;;;4.57;;
76152;SDS011;64897;50.816;4.422;2023-04-24T04:27:30;7.55;;;5.03;;
76152;SDS011;64897;50.816;4.422;2023-04-24T04:30:25;7.38;;;4.40;;
76152;SDS011;64897;50.816;4.422;2023-04-24T04:33:18;6.10;;;4.47;;
76152;SDS011;64897;50.816;4.422;2023-04-24T04:36:05;9.25;;;4.68;;
76152;SDS011;64897;50.816;4.422;2023-04-24T04:38:57;6.65;;;4.15;;
76152;SDS011;64897;50.816;4.422;2023-04-24T04:42:05;5.78;;;4.00;;
76152;SDS011;64897;50.816;4.422;2023-04-24T04:44:59;7.28;;;4.28;;
76152;SDS011;64897;50.816;4.422;2023-04-24T04:47:57;6.90;;;4.93;;
76152;SDS011;64897;50.816;4.422;2023-04-24T04:50:45;8.30;;;4.75;;
76152;SDS011;64897;50.816;4.422;2023-04-24T04:53:32;7.20;;;4.47;;
76152;SDS011;64897;50.816;4.422;2023-04-24T04:56:20;10.18;;;5.43;;
76152;SDS011;64897;50.816;4.422;2023-04-24T04:59:07;10.15;;;6.15;;
76152;SDS011;64897;50.816;4.422;2023-04-24T05:01:58;12.10;;;6.45;;
76152;SDS011;64897;50.816;4.422;2023-04-24T05:04:45;13.57;;;7.47;;
76152;SDS011;64897;50.816;4.422;2023-04-24T05:07:33;10.68;;;6.38;;
76152;SDS011;64897;50.816;4.422;2023-04-24T05:10:20;13.60;;;7.15;;
76152;SDS011;64897;50.816;4.422;2023-04-24T05:13:09;11.00;;;7.03;;
76152;SDS011;64897;50.816;4.422;2023-04-24T05:15:57;14.02;;;7.90;;
76152;SDS011;64897;50.816;4.422;2023-04-24T05:18:46;13.18;;;6.75;;
76152;SDS011;64897;50.816;4.422;2023-04-24T05:21:37;11.73;;;7.53;;
76152;SDS011;64897;50.816;4.422;2023-04-24T05:24:25;13.95;;;7.38;;
76152;SDS011;64897;50.816;4.422;2023-04-24T05:27:48;14.05;;;8.27;;
76152;SDS011;64897;50.816;4.422;2023-04-24T05:30:36;11.25;;;7.10;;
76152;SDS011;64897;50.816;4.422;2023-04-24T05:33:25;14.35;;;7.55;;
76152;SDS011;64897;50.816;4.422;2023-04-24T05:36:13;13.98;;;7.60;;
76152;SDS011;64897;50.816;4.422;2023-04-24T05:39:00;13.38;;;7.68;;
76152;SDS011;64897;50.816;4.422;2023-04-24T05:41:49;13.27;;;7.80;;
76152;SDS011;64897;50.816;4.422;2023-04-24T05:44:36;12.82;;;7.60;;
76152;SDS011;64897;50.816;4.422;2023-04-24T05:47:23;14.18;;;8.00;;
76152;SDS011;64897;50.816;4.422;2023-04-24T05:50:11;14.20;;;7.13;;
76152;SDS011;64897;50.816;4.422;2023-04-24T05:53:01;13.20;;;7.85;;
76152;SDS011;64897;50.816;4.422;2023-04-24T05:55:52;14.95;;;7.55;;
76152;SDS011;64897;50.816;4.422;2023-04-24T05:58:39;17.50;;;6.90;;
76152;SDS011;64897;50.816;4.422;2023-04-24T06:01:27;13.82;;;8.48;;
76152;SDS011;64897;50.816;4.422;2023-04-24T06:04:25;20.50;;;8.43;;
76152;SDS011;64897;50.816;4.422;2023-04-24T06:07:11;12.80;;;7.80;;
76152;SDS011;64897;50.816;4.422;2023-04-24T06:10:03;18.30;;;8.57;;
76152;SDS011;64897;50.816;4.422;2023-04-24T06:12:57;13.60;;;8.45;;
76152;SDS011;64897;50.816;4.422;2023-04-24T06:15:47;14.55;;;7.88;;
76152;SDS011;64897;50.816;4.422;2023-04-24T06:18:39;14.27;;;8.32;;
76152;SDS011;64897;50.816;4.422;2023-04-24T06:21:27;16.00;;;8.07;;
76152;SDS011;64897;50.816;4.422;2023-04-24T06:24:14;15.90;;;8.30;;
76152;SDS011;64897;50.816;4.422;2023-04-24T06:27:03;19.70;;;9.75;;
76152;SDS011;64897;50.816;4.422;2023-04-24T06:29:51;16.90;;;8.00;;
76152;SDS011;64897;50.816;4.422;2023-04-24T06:32:39;18.50;;;8.60;;
76152;SDS011;64897;50.816;4.422;2023-04-24T06:35:26;16.10;;;8.98;;
76152;SDS011;64897;50.816;4.422;2023-04-24T06:38:13;18.33;;;8.93;;
76152;SDS011;64897;50.816;4.422;2023-04-24T06:41:00;14.40;;;9.15;;
76152;SDS011;64897;50.816;4.422;2023-04-24T06:43:50;21.13;;;9.25;;
76152;SDS011;64897;50.816;4.422;2023-04-24T06:46:38;16.00;;;9.95;;
76152;SDS011;64897;50.816;4.422;2023-04-24T06:49:25;14.00;;;9.23;;
76152;SDS011;64897;50.816;4.422;2023-04-24T06:52:12;19.35;;;9.60;;
76152;SDS011;64897;50.816;4.422;2023-04-24T06:55:02;19.65;;;9.23;;
76152;SDS011;64897;50.816;4.422;2023-04-24T06:57:51;14.90;;;9.48;;
76152;SDS011;64897;50.816;4.422;2023-04-24T07:00:39;21.48;;;10.23;;
76152;SDS011;64897;50.816;4.422;2023-04-24T07:03:26;23.45;;;10.15;;
76152;SDS011;64897;50.816;4.422;2023-04-24T07:06:13;16.40;;;9.55;;
76152;SDS011;64897;50.816;4.422;2023-04-24T07:09:01;21.15;;;10.57;;
76152;SDS011;64897;50.816;4.422;2023-04-24T07:11:48;23.33;;;11.48;;
76152;SDS011;64897;50.816;4.422;2023-04-24T07:14:35;18.75;;;10.20;;
76152;SDS011;64897;50.816;4.422;2023-04-24T07:17:25;21.40;;;10.38;;
76152;SDS011;64897;50.816;4.422;2023-04-24T07:20:12;20.17;;;11.50;;
76152;SDS011;64897;50.816;4.422;2023-04-24T07:23:00;17.45;;;10.27;;
76152;SDS011;64897;50.816;4.422;2023-04-24T07:25:47;15.95;;;9.73;;
76152;SDS011;64897;50.816;4.422;2023-04-24T07:28:34;21.92;;;10.32;;
76152;SDS011;64897;50.816;4.422;2023-04-24T07:31:21;17.52;;;9.02;;
76152;SDS011;64897;50.816;4.422;2023-04-24T07:34:09;21.77;;;8.95;;
76152;SDS011;64897;50.816;4.422;2023-04-24T07:36:56;18.05;;;9.65;;
76152;SDS011;64897;50.816;4.422;2023-04-24T07:39:44;18.42;;;8.30;;
76152;SDS011;64897;50.816;4.422;2023-04-24T07:42:31;15.70;;;8.23;;
76152;SDS011;64897;50.816;4.422;2023-04-24T07:45:18;16.70;;;7.88;;
76152;SDS011;64897;50.816;4.422;2023-04-24T07:48:07;17.90;;;8.10;;
76152;SDS011;64897;50.816;4.422;2023-04-24T07:50:56;16.85;;;8.13;;
76152;SDS011;64897;50.816;4.422;2023-04-24T07:53:43;17.77;;;8.77;;
76152;SDS011;64897;50.816;4.422;2023-04-24T07:56:30;16.55;;;8.60;;
76152;SDS011;64897;50.816;4.422;2023-04-24T07:59:17;18.17;;;8.20;;
76152;SDS011;64897;50.816;4.422;2023-04-24T08:02:05;23.33;;;8.77;;
76152;SDS011;64897;50.816;4.422;2023-04-24T08:04:51;16.05;;;7.68;;
76152;SDS011;64897;50.816;4.422;2023-04-24T08:07:40;16.00;;;7.53;;
76152;SDS011;64897;50.816;4.422;2023-04-24T08:10:28;16.58;;;9.23;;
76152;SDS011;64897;50.816;4.422;2023-04-24T08:13:15;16.15;;;7.88;;
76152;SDS011;64897;50.816;4.422;2023-04-24T08:16:02;15.25;;;7.80;;
76152;SDS011;64897;50.816;4.422;2023-04-24T08:18:49;13.10;;;7.10;;
76152;SDS011;64897;50.816;4.422;2023-04-24T08:21:36;14.93;;;7.07;;
76152;SDS011;64897;50.816;4.422;2023-04-24T08:24:25;12.70;;;7.00;;
76152;SDS011;64897;50.816;4.422;2023-04-24T08:27:12;14.38;;;7.32;;
76152;SDS011;64897;50.816;4.422;2023-04-24T08:29:59;18.17;;;7.80;;
76152;SDS011;64897;50.816;4.422;2023-04-24T08:32:47;13.05;;;6.05;;
76152;SDS011;64897;50.816;4.422;2023-04-24T08:35:34;11.85;;;6.07;;
76152;SDS011;64897;50.816;4.422;2023-04-24T08:38:21;13.90;;;6.20;;
76152;SDS011;64897;50.816;4.422;2023-04-24T08:41:09;15.57;;;6.82;;
76152;SDS011;64897;50.816;4.422;2023-04-24T08:43:56;13.55;;;6.15;;
76152;SDS011;64897;50.816;4.422;2023-04-24T08:46:44;11.98;;;6.45;;
76152;SDS011;64897;50.816;4.422;2023-04-24T08:49:33;12.73;;;5.40;;
76152;SDS011;64897;50.816;4.422;2023-04-24T08:52:25;12.95;;;5.80;;
76152;SDS011;64897;50.816;4.422;2023-04-24T08:55:12;14.13;;;5.72;;
76152;SDS011;64897;50.816;4.422;2023-04-24T08:58:02;8.95;;;5.32;;
76152;SDS011;64897;50.816;4.422;2023-04-24T09:00:49;10.13;;;4.82;;
76152;SDS011;64897;50.816;4.422;2023-04-24T09:03:36;10.23;;;4.63;;
76152;SDS011;64897;50.816;4.422;2023-04-24T09:06:24;8.43;;;4.25;;
76152;SDS011;64897;50.816;4.422;2023-04-24T09:09:11;8.25;;;4.38;;
76152;SDS011;64897;50.816;4.422;2023-04-24T09:11:59;15.57;;;5.07;;
76152;SDS011;64897;50.816;4.422;2023-04-24T09:14:49;9.45;;;4.13;;
76152;SDS011;64897;50.816;4.422;2023-04-24T09:17:37;8.57;;;3.92;;
76152;SDS011;64897;50.816;4.422;2023-04-24T09:20:24;8.50;;;3.53;;
76152;SDS011;64897;50.816;4.422;2023-04-24T09:23:11;10.07;;;3.83;;
76152;SDS011;64897;50.816;4.422;2023-04-24T09:26:04;7.68;;;3.83;;
76152;SDS011;64897;50.816;4.422;2023-04-24T09:28:51;9.10;;;3.70;;
76152;SDS011;64897;50.816;4.422;2023-04-24T09:31:41;8.15;;;3.85;;
76152;SDS011;64897;50.816;4.422;2023-04-24T09:34:29;7.07;;;3.33;;
76152;SDS011;64897;50.816;4.422;2023-04-24T09:37:27;10.80;;;3.92;;
76152;SDS011;64897;50.816;4.422;2023-04-24T09:40:15;5.28;;;3.35;;
76152;SDS011;64897;50.816;4.422;2023-04-24T09:43:04;8.45;;;3.45;;
76152;SDS011;64897;50.816;4.422;2023-04-24T09:45:56;7.07;;;3.65;;
76152;SDS011;64897;50.816;4.422;2023-04-24T09:48:45;8.18;;;3.40;;
76152;SDS011;64897;50.816;4.422;2023-04-24T09:51:33;9.32;;;3.90;;
76152;SDS011;64897;50.816;4.422;2023-04-24T09:54:22;7.07;;;3.40;;
76152;SDS011;64897;50.816;4.422;2023-04-24T09:57:10;7.68;;;3.17;;
76152;SDS011;64897;50.816;4.422;2023-04-24T09:59:57;8.63;;;3.53;;
76152;SDS011;64897;50.816;4.422;2023-04-24T10:02:44;8.10;;;3.42;;
76152;SDS011;64897;50.816;4.422;2023-04-24T10:05:36;7.38;;;3.30;;
76152;SDS011;64897;50.816;4.422;2023-04-24T10:11:11;5.85;;;3.70;;
76152;SDS011;64897;50.816;4.422;2023-04-24T10:13:59;8.18;;;3.67;;
76152;SDS011;64897;50.816;4.422;2023-04-24T10:16:46;6.70;;;3.42;;
76152;SDS011;64897;50.816;4.422;2023-04-24T10:19:34;5.78;;;3.17;;
76152;SDS011;64897;50.816;4.422;2023-04-24T10:22:24;9.57;;;3.38;;
76152;SDS011;64897;50.816;4.422;2023-04-24T10:25:14;6.28;;;3.63;;
76152;SDS011;64897;50.816;4.422;2023-04-24T10:28:02;7.68;;;3.65;;
76152;SDS011;64897;50.816;4.422;2023-04-24T10:30:50;6.18;;;3.60;;
76152;SDS011;64897;50.816;4.422;2023-04-24T10:33:40;8.38;;;3.97;;
76152;SDS011;64897;50.816;4.422;2023-04-24T10:36:30;11.10;;;4.10;;
76152;SDS011;64897;50.816;4.422;2023-04-24T10:39:20;9.70;;;3.97;;
76152;SDS011;64897;50.816;4.422;2023-04-24T10:42:13;6.60;;;3.95;;
76152;SDS011;64897;50.816;4.422;2023-04-24T10:45:04;11.02;;;4.53;;
76152;SDS011;64897;50.816;4.422;2023-04-24T10:47:52;7.93;;;4.63;;
76152;SDS011;64897;50.816;4.422;2023-04-24T10:50:43;8.20;;;3.78;;
76152;SDS011;64897;50.816;4.422;2023-04-24T10:53:34;8.07;;;4.55;;
76152;SDS011;64897;50.816;4.422;2023-04-24T10:56:22;11.13;;;4.65;;
76152;SDS011;64897;50.816;4.422;2023-04-24T10:59:10;7.75;;;4.72;;
76152;SDS011;64897;50.816;4.422;2023-04-24T11:02:09;7.53;;;3.50;;
76152;SDS011;64897;50.816;4.422;2023-04-24T11:04:56;7.93;;;3.80;;
76152;SDS011;64897;50.816;4.422;2023-04-24T11:11:02;11.65;;;4.55;;
76152;SDS011;64897;50.816;4.422;2023-04-24T11:14:02;12.63;;;4.22;;
76152;SDS011;64897;50.816;4.422;2023-04-24T11:16:52;12.30;;;4.20;;
76152;SDS011;64897;50.816;4.422;2023-04-24T11:19:40;11.43;;;4.53;;
76152;SDS011;64897;50.816;4.422;2023-04-24T11:22:26;9.55;;;4.13;;
76152;SDS011;64897;50.816;4.422;2023-04-24T11:25:18;6.80;;;4.07;;
76152;SDS011;64897;50.816;4.422;2023-04-24T11:28:07;6.30;;;3.88;;
76152;SDS011;64897;50.816;4.422;2023-04-24T11:31:09;8.00;;;3.97;;
76152;SDS011;64897;50.816;4.422;2023-04-24T11:34:20;5.47;;;3.70;;
76152;SDS011;64897;50.816;4.422;2023-04-24T11:37:08;7.97;;;3.70;;
76152;SDS011;64897;50.816;4.422;2023-04-24T11:39:56;6.85;;;3.63;;
76152;SDS011;64897;50.816;4.422;2023-04-24T11:42:44;7.82;;;4.05;;
76152;SDS011;64897;50.816;4.422;2023-04-24T11:45:32;8.32;;;4.28;;
76152;SDS011;64897;50.816;4.422;2023-04-24T11:48:21;9.25;;;4.32;;
76152;SDS011;64897;50.816;4.422;2023-04-24T11:51:08;6.47;;;4.32;;
76152;SDS011;64897;50.816;4.422;2023-04-24T11:53:57;7.30;;;4.25;;
76152;SDS011;64897;50.816;4.422;2023-04-24T11:56:46;9.73;;;4.03;;
76152;SDS011;64897;50.816;4.422;2023-04-24T11:59:36;9.73;;;4.30;;
76152;SDS011;64897;50.816;4.422;2023-04-24T12:02:24;7.57;;;4.68;;
76152;SDS011;64897;50.816;4.422;2023-04-24T12:05:20;10.85;;;5.65;;
76152;SDS011;64897;50.816;4.422;2023-04-24T12:08:07;9.52;;;4.78;;
76152;SDS011;64897;50.816;4.422;2023-04-24T12:10:55;8.88;;;4.93;;
76152;SDS011;64897;50.816;4.422;2023-04-24T12:13:44;8.68;;;5.03;;
76152;SDS011;64897;50.816;4.422;2023-04-24T12:16:32;7.75;;;4.68;;
76152;SDS011;64897;50.816;4.422;2023-04-24T12:19:20;8.95;;;4.55;;
76152;SDS011;64897;50.816;4.422;2023-04-24T12:22:09;11.02;;;4.55;;
76152;SDS011;64897;50.816;4.422;2023-04-24T12:24:57;8.88;;;4.53;;
76152;SDS011;64897;50.816;4.422;2023-04-24T12:27:51;6.38;;;4.35;;
76152;SDS011;64897;50.816;4.422;2023-04-24T12:30:41;9.95;;;4.88;;
76152;SDS011;64897;50.816;4.422;2023-04-24T12:33:32;8.85;;;4.20;;
76152;SDS011;64897;50.816;4.422;2023-04-24T12:36:20;8.10;;;4.43;;
76152;SDS011;64897;50.816;4.422;2023-04-24T12:39:15;8.95;;;4.63;;
76152;SDS011;64897;50.816;4.422;2023-04-24T12:42:02;8.45;;;4.50;;
76152;SDS011;64897;50.816;4.422;2023-04-24T12:44:49;7.38;;;4.53;;
76152;SDS011;64897;50.816;4.422;2023-04-24T12:47:42;7.00;;;4.43;;
76152;SDS011;64897;50.816;4.422;2023-04-24T12:50:30;8.02;;;3.95;;
76152;SDS011;64897;50.816;4.422;2023-04-24T12:53:16;8.02;;;4.70;;
76152;SDS011;64897;50.816;4.422;2023-04-24T12:56:05;8.32;;;4.10;;
76152;SDS011;64897;50.816;4.422;2023-04-24T12:58:52;8.07;;;4.38;;
76152;SDS011;64897;50.816;4.422;2023-04-24T13:01:39;8.50;;;3.53;;
76152;SDS011;64897;50.816;4.422;2023-04-24T13:04:26;8.25;;;4.13;;
76152;SDS011;64897;50.816;4.422;2023-04-24T13:07:14;6.45;;;4.15;;
76152;SDS011;64897;50.816;4.422;2023-04-24T13:10:01;10.85;;;4.25;;
76152;SDS011;64897;50.816;4.422;2023-04-24T13:12:49;6.80;;;3.95;;
76152;SDS011;64897;50.816;4.422;2023-04-24T13:15:37;8.40;;;3.88;;
76152;SDS011;64897;50.816;4.422;2023-04-24T13:18:23;6.25;;;3.35;;
76152;SDS011;64897;50.816;4.422;2023-04-24T13:21:10;5.63;;;3.40;;
76152;SDS011;64897;50.816;4.422;2023-04-24T13:23:57;6.05;;;3.90;;
76152;SDS011;64897;50.816;4.422;2023-04-24T13:26:44;5.57;;;3.50;;
76152;SDS011;64897;50.816;4.422;2023-04-24T13:29:33;5.82;;;3.50;;
76152;SDS011;64897;50.816;4.422;2023-04-24T13:32:20;7.35;;;2.97;;
76152;SDS011;64897;50.816;4.422;2023-04-24T13:35:07;5.80;;;3.10;;
76152;SDS011;64897;50.816;4.422;2023-04-24T13:37:54;5.53;;;3.42;;
76152;SDS011;64897;50.816;4.422;2023-04-24T13:40:43;6.03;;;2.92;;
76152;SDS011;64897;50.816;4.422;2023-04-24T13:43:30;5.78;;;2.80;;
76152;SDS011;64897;50.816;4.422;2023-04-24T13:46:19;5.07;;;3.00;;
76152;SDS011;64897;50.816;4.422;2023-04-24T13:49:09;8.85;;;3.67;;
76152;SDS011;64897;50.816;4.422;2023-04-24T13:51:56;5.68;;;3.25;;
76152;SDS011;64897;50.816;4.422;2023-04-24T13:54:44;8.43;;;3.00;;
76152;SDS011;64897;50.816;4.422;2023-04-24T13:57:30;8.38;;;3.08;;
76152;SDS011;64897;50.816;4.422;2023-04-24T14:00:17;5.60;;;2.70;;
76152;SDS011;64897;50.816;4.422;2023-04-24T14:03:06;6.68;;;3.10;;
76152;SDS011;64897;50.816;4.422;2023-04-24T14:05:53;8.73;;;3.30;;
76152;SDS011;64897;50.816;4.422;2023-04-24T14:08:40;6.45;;;2.63;;
76152;SDS011;64897;50.816;4.422;2023-04-24T14:11:27;6.43;;;2.85;;
76152;SDS011;64897;50.816;4.422;2023-04-24T14:14:14;5.90;;;2.40;;
76152;SDS011;64897;50.816;4.422;2023-04-24T14:17:01;5.65;;;2.70;;
76152;SDS011;64897;50.816;4.422;2023-04-24T14:19:50;4.25;;;2.40;;
76152;SDS011;64897;50.816;4.422;2023-04-24T14:22:41;5.18;;;2.50;;
76152;SDS011;64897;50.816;4.422;2023-04-24T14:25:28;7.88;;;2.08;;
76152;SDS011;64897;50.816;4.422;2023-04-24T14:28:15;7.05;;;2.60;;
76152;SDS011;64897;50.816;4.422;2023-04-24T14:31:02;6.88;;;2.40;;
76152;SDS011;64897;50.816;4.422;2023-04-24T14:33:49;5.32;;;2.55;;
76152;SDS011;64897;50.816;4.422;2023-04-24T14:36:37;4.93;;;2.70;;
76152;SDS011;64897;50.816;4.422;2023-04-24T14:39:25;6.10;;;2.20;;
76152;SDS011;64897;50.816;4.422;2023-04-24T14:42:12;3.95;;;2.50;;
76152;SDS011;64897;50.816;4.422;2023-04-24T14:44:59;3.42;;;2.38;;
76152;SDS011;64897;50.816;4.422;2023-04-24T14:47:46;5.68;;;2.20;;
76152;SDS011;64897;50.816;4.422;2023-04-24T14:50:33;4.63;;;2.00;;
76152;SDS011;64897;50.816;4.422;2023-04-24T14:53:23;4.45;;;2.22;;
76152;SDS011;64897;50.816;4.422;2023-04-24T14:56:10;5.20;;;2.58;;
76152;SDS011;64897;50.816;4.422;2023-04-24T14:58:57;6.07;;;3.05;;
76152;SDS011;64897;50.816;4.422;2023-04-24T15:01:44;6.53;;;2.03;;
76152;SDS011;64897;50.816;4.422;2023-04-24T15:04:31;3.20;;;2.05;;
76152;SDS011;64897;50.816;4.422;2023-04-24T15:07:18;4.30;;;2.90;;
76152;SDS011;64897;50.816;4.422;2023-04-24T15:10:07;4.63;;;2.10;;
76152;SDS011;64897;50.816;4.422;2023-04-24T15:12:54;3.22;;;2.10;;
76152;SDS011;64897;50.816;4.422;2023-04-24T15:15:42;4.30;;;2.20;;
76152;SDS011;64897;50.816;4.422;2023-04-24T15:18:29;7.60;;;2.60;;
76152;SDS011;64897;50.816;4.422;2023-04-24T15:21:15;3.58;;;2.15;;
76152;SDS011;64897;50.816;4.422;2023-04-24T15:24:03;7.72;;;2.65;;
76152;SDS011;64897;50.816;4.422;2023-04-24T15:26:52;7.80;;;2.47;;
76152;SDS011;64897;50.816;4.422;2023-04-24T15:29:39;3.55;;;2.15;;
76152;SDS011;64897;50.816;4.422;2023-04-24T15:32:27;3.65;;;1.92;;
76152;SDS011;64897;50.816;4.422;2023-04-24T15:35:13;4.20;;;2.10;;
76152;SDS011;64897;50.816;4.422;2023-04-24T15:38:00;3.80;;;1.92;;
76152;SDS011;64897;50.816;4.422;2023-04-24T15:40:49;4.20;;;2.05;;
76152;SDS011;64897;50.816;4.422;2023-04-24T15:43:37;4.40;;;2.50;;
76152;SDS011;64897;50.816;4.422;2023-04-24T15:46:25;8.60;;;2.58;;
76152;SDS011;64897;50.816;4.422;2023-04-24T15:49:12;14.00;;;2.28;;
76152;SDS011;64897;50.816;4.422;2023-04-24T15:51:59;7.63;;;2.08;;
76152;SDS011;64897;50.816;4.422;2023-04-24T15:54:46;5.88;;;1.88;;
76152;SDS011;64897;50.816;4.422;2023-04-24T15:57:33;5.25;;;2.22;;
76152;SDS011;64897;50.816;4.422;2023-04-24T16:00:21;3.75;;;2.78;;
76152;SDS011;64897;50.816;4.422;2023-04-24T16:03:08;4.70;;;1.85;;
76152;SDS011;64897;50.816;4.422;2023-04-24T16:05:55;7.13;;;2.00;;
76152;SDS011;64897;50.816;4.422;2023-04-24T16:08:42;4.70;;;1.90;;
76152;SDS011;64897;50.816;4.422;2023-04-24T16:11:30;2.90;;;1.50;;
76152;SDS011;64897;50.816;4.422;2023-04-24T16:14:17;5.95;;;2.13;;
76152;SDS011;64897;50.816;4.422;2023-04-24T16:17:06;7.50;;;2.05;;
76152;SDS011;64897;50.816;4.422;2023-04-24T16:19:53;6.55;;;2.38;;
76152;SDS011;64897;50.816;4.422;2023-04-24T16:22:40;3.08;;;1.92;;
76152;SDS011;64897;50.816;4.422;2023-04-24T16:25:28;3.08;;;2.03;;
76152;SDS011;64897;50.816;4.422;2023-04-24T16:28:15;5.30;;;2.17;;
76152;SDS011;64897;50.816;4.422;2023-04-24T16:31:02;5.78;;;1.95;;
76152;SDS011;64897;50.816;4.422;2023-04-24T16:33:50;7.47;;;2.47;;
76152;SDS011;64897;50.816;4.422;2023-04-24T16:36:38;6.53;;;2.80;;
76152;SDS011;64897;50.816;4.422;2023-04-24T16:39:24;4.22;;;2.03;;
76152;SDS011;64897;50.816;4.422;2023-04-24T16:42:12;8.05;;;2.38;;
76152;SDS011;64897;50.816;4.422;2023-04-24T16:45:00;3.00;;;1.70;;
76152;SDS011;64897;50.816;4.422;2023-04-24T16:47:49;3.88;;;2.17;;
76152;SDS011;64897;50.816;4.422;2023-04-24T16:50:37;5.18;;;2.10;;
76152;SDS011;64897;50.816;4.422;2023-04-24T16:53:24;3.83;;;2.03;;